Holdridge, Nebraska
Current Conditions -  °F | °C
As of 3:35 PM on Saturday 22 Nov 2014 (Local Time) from KHDE Reporting Station
Clear Clear  
Wind Chill: 14°   Ceiling: Unl
Heat Index: 14°   Visibility: 10mi
Dew Point: -1°   Wind: 14mph
Humidity: 36%   Direction: 170°S
Pressure: 29.59"   Gusts: 21mph
Location:  40.4958°N, 99.3198°W
Report Text: KHDE 222135Z AUTO 17012G18KT 10SM CLR 14/M01 A2959 RMK AO2 T01371013
Loading
Personal Weather Stations






























Interactive Weather Map New forecast layout! Learn more

10-Day Weather Forecast

Advertisements
Track Severe Weather on mobile